sensor_id;sensor_type;location;lat;lon;timestamp;temperature;humidity
44843;DHT22;31884;52.538;13.820;2023-05-10T00:00:27;10.50;51.90
44843;DHT22;31884;52.538;13.820;2023-05-10T00:02:52;10.50;53.70
44843;DHT22;31884;52.538;13.820;2023-05-10T00:05:18;10.50;53.00
44843;DHT22;31884;52.538;13.820;2023-05-10T00:07:44;10.50;54.40
44843;DHT22;31884;52.538;13.820;2023-05-10T00:10:12;10.40;54.40
44843;DHT22;31884;52.538;13.820;2023-05-10T00:12:38;10.40;55.50
44843;DHT22;31884;52.538;13.820;2023-05-10T00:15:04;10.30;56.40
44843;DHT22;31884;52.538;13.820;2023-05-10T00:17:30;10.30;56.10
44843;DHT22;31884;52.538;13.820;2023-05-10T00:19:55;10.40;57.00
44843;DHT22;31884;52.538;13.820;2023-05-10T00:22:21;10.40;57.00
44843;DHT22;31884;52.538;13.820;2023-05-10T00:24:47;10.30;57.70
44843;DHT22;31884;52.538;13.820;2023-05-10T00:27:12;10.30;57.60
44843;DHT22;31884;52.538;13.820;2023-05-10T00:29:38;10.30;58.20
44843;DHT22;31884;52.538;13.820;2023-05-10T00:32:03;10.30;58.80
44843;DHT22;31884;52.538;13.820;2023-05-10T00:34:29;10.30;58.60
44843;DHT22;31884;52.538;13.820;2023-05-10T00:36:54;10.20;58.90
44843;DHT22;31884;52.538;13.820;2023-05-10T00:39:20;10.30;59.90
44843;DHT22;31884;52.538;13.820;2023-05-10T00:41:45;10.30;60.00
44843;DHT22;31884;52.538;13.820;2023-05-10T00:44:11;10.30;60.30
44843;DHT22;31884;52.538;13.820;2023-05-10T00:46:37;10.30;60.40
44843;DHT22;31884;52.538;13.820;2023-05-10T00:49:02;10.20;60.50
44843;DHT22;31884;52.538;13.820;2023-05-10T00:51:28;10.20;60.20
44843;DHT22;31884;52.538;13.820;2023-05-10T00:53:53;10.20;61.00
44843;DHT22;31884;52.538;13.820;2023-05-10T00:56:21;10.10;61.50
44843;DHT22;31884;52.538;13.820;2023-05-10T00:58:48;10.20;61.20
44843;DHT22;31884;52.538;13.820;2023-05-10T01:01:14;10.20;61.10
44843;DHT22;31884;52.538;13.820;2023-05-10T01:03:40;10.10;61.10
44843;DHT22;31884;52.538;13.820;2023-05-10T01:06:05;10.10;61.80
44843;DHT22;31884;52.538;13.820;2023-05-10T01:08:31;10.20;61.20
44843;DHT22;31884;52.538;13.820;2023-05-10T01:10:57;10.10;61.60
44843;DHT22;31884;52.538;13.820;2023-05-10T01:13:43;10.10;61.00
44843;DHT22;31884;52.538;13.820;2023-05-10T01:16:11;10.10;61.60
44843;DHT22;31884;52.538;13.820;2023-05-10T01:18:39;10.10;61.50
44843;DHT22;31884;52.538;13.820;2023-05-10T01:26:49;10.10;61.10
44843;DHT22;31884;52.538;13.820;2023-05-10T01:35:41;10.00;61.60
44843;DHT22;31884;52.538;13.820;2023-05-10T01:40:36;10.00;61.60
44843;DHT22;31884;52.538;13.820;2023-05-10T01:43:13;10.00;61.40
44843;DHT22;31884;52.538;13.820;2023-05-10T01:46:05;9.90;61.60
44843;DHT22;31884;52.538;13.820;2023-05-10T01:48:39;9.90;61.70
44843;DHT22;31884;52.538;13.820;2023-05-10T01:51:06;9.90;60.90
44843;DHT22;31884;52.538;13.820;2023-05-10T01:53:32;9.90;61.90
44843;DHT22;31884;52.538;13.820;2023-05-10T01:56:00;9.80;61.70
44843;DHT22;31884;52.538;13.820;2023-05-10T01:58:31;9.80;62.80
44843;DHT22;31884;52.538;13.820;2023-05-10T02:01:00;9.70;62.20
44843;DHT22;31884;52.538;13.820;2023-05-10T02:03:27;9.80;63.00
44843;DHT22;31884;52.538;13.820;2023-05-10T02:05:54;9.70;62.40
44843;DHT22;31884;52.538;13.820;2023-05-10T02:08:22;9.60;62.70
44843;DHT22;31884;52.538;13.820;2023-05-10T02:10:49;9.60;63.10
44843;DHT22;31884;52.538;13.820;2023-05-10T02:13:16;9.60;64.20
44843;DHT22;31884;52.538;13.820;2023-05-10T02:15:43;9.60;63.70
44843;DHT22;31884;52.538;13.820;2023-05-10T02:18:13;9.50;64.20
44843;DHT22;31884;52.538;13.820;2023-05-10T02:20:39;9.50;64.50
44843;DHT22;31884;52.538;13.820;2023-05-10T02:23:06;9.40;65.00
44843;DHT22;31884;52.538;13.820;2023-05-10T02:25:32;9.40;65.50
44843;DHT22;31884;52.538;13.820;2023-05-10T02:28:00;9.40;65.50
44843;DHT22;31884;52.538;13.820;2023-05-10T02:30:26;9.40;65.40
44843;DHT22;31884;52.538;13.820;2023-05-10T02:32:54;9.40;65.70
44843;DHT22;31884;52.538;13.820;2023-05-10T02:35:22;9.30;66.40
44843;DHT22;31884;52.538;13.820;2023-05-10T02:37:48;9.30;65.80
44843;DHT22;31884;52.538;13.820;2023-05-10T02:40:16;9.30;66.10
44843;DHT22;31884;52.538;13.820;2023-05-10T02:42:43;9.20;65.70
44843;DHT22;31884;52.538;13.820;2023-05-10T02:45:15;9.20;65.50
44843;DHT22;31884;52.538;13.820;2023-05-10T02:47:42;9.10;66.00
44843;DHT22;31884;52.538;13.820;2023-05-10T02:50:09;9.10;67.70
44843;DHT22;31884;52.538;13.820;2023-05-10T02:52:47;9.10;67.30
44843;DHT22;31884;52.538;13.820;2023-05-10T02:55:15;9.00;67.30
44843;DHT22;31884;52.538;13.820;2023-05-10T02:57:48;9.00;68.60
44843;DHT22;31884;52.538;13.820;2023-05-10T03:00:16;9.00;68.50
44843;DHT22;31884;52.538;13.820;2023-05-10T03:02:41;8.90;69.30
44843;DHT22;31884;52.538;13.820;2023-05-10T03:05:07;8.90;68.90
44843;DHT22;31884;52.538;13.820;2023-05-10T03:07:33;8.90;69.40
44843;DHT22;31884;52.538;13.820;2023-05-10T03:10:00;8.90;69.70
44843;DHT22;31884;52.538;13.820;2023-05-10T03:13:09;8.90;69.20
44843;DHT22;31884;52.538;13.820;2023-05-10T03:15:59;8.90;70.00
44843;DHT22;31884;52.538;13.820;2023-05-10T03:18:42;8.90;69.40
44843;DHT22;31884;52.538;13.820;2023-05-10T03:21:11;8.80;68.80
44843;DHT22;31884;52.538;13.820;2023-05-10T03:23:52;8.90;69.40
44843;DHT22;31884;52.538;13.820;2023-05-10T03:26:28;8.90;69.50
44843;DHT22;31884;52.538;13.820;2023-05-10T03:28:54;8.90;69.40
44843;DHT22;31884;52.538;13.820;2023-05-10T03:31:20;8.90;69.20
44843;DHT22;31884;52.538;13.820;2023-05-10T03:33:50;8.90;69.40
44843;DHT22;31884;52.538;13.820;2023-05-10T03:36:16;8.90;70.00
44843;DHT22;31884;52.538;13.820;2023-05-10T03:38:42;8.90;69.40
44843;DHT22;31884;52.538;13.820;2023-05-10T03:41:08;8.90;69.40
44843;DHT22;31884;52.538;13.820;2023-05-10T03:43:33;8.80;69.20
44843;DHT22;31884;52.538;13.820;2023-05-10T03:46:01;8.80;69.30
44843;DHT22;31884;52.538;13.820;2023-05-10T03:48:26;8.90;69.70
44843;DHT22;31884;52.538;13.820;2023-05-10T03:50:52;8.90;69.30
44843;DHT22;31884;52.538;13.820;2023-05-10T03:53:17;8.90;69.30
44843;DHT22;31884;52.538;13.820;2023-05-10T03:55:42;8.90;68.50
44843;DHT22;31884;52.538;13.820;2023-05-10T03:58:10;9.00;68.60
44843;DHT22;31884;52.538;13.820;2023-05-10T04:00:36;9.00;69.10
44843;DHT22;31884;52.538;13.820;2023-05-10T04:03:02;9.00;68.70
44843;DHT22;31884;52.538;13.820;2023-05-10T04:05:28;9.00;69.00
44843;DHT22;31884;52.538;13.820;2023-05-10T04:07:54;9.50;67.50
44843;DHT22;31884;52.538;13.820;2023-05-10T04:10:20;10.30;63.60
44843;DHT22;31884;52.538;13.820;2023-05-10T04:12:46;11.10;59.00
44843;DHT22;31884;52.538;13.820;2023-05-10T04:15:11;11.80;54.20
44843;DHT22;31884;52.538;13.820;2023-05-10T04:17:37;12.50;51.20
44843;DHT22;31884;52.538;13.820;2023-05-10T04:20:03;13.10;49.60
44843;DHT22;31884;52.538;13.820;2023-05-10T04:22:29;13.50;45.10
44843;DHT22;31884;52.538;13.820;2023-05-10T04:24:54;14.00;43.10
44843;DHT22;31884;52.538;13.820;2023-05-10T04:27:20;14.40;42.50
44843;DHT22;31884;52.538;13.820;2023-05-10T04:29:45;14.90;41.00
44843;DHT22;31884;52.538;13.820;2023-05-10T04:32:11;15.20;34.60
44843;DHT22;31884;52.538;13.820;2023-05-10T04:34:37;15.50;35.80
44843;DHT22;31884;52.538;13.820;2023-05-10T04:37:02;15.80;30.80
44843;DHT22;31884;52.538;13.820;2023-05-10T04:39:28;16.00;30.60
44843;DHT22;31884;52.538;13.820;2023-05-10T04:41:53;15.80;29.80
44843;DHT22;31884;52.538;13.820;2023-05-10T04:44:19;15.90;29.40
44843;DHT22;31884;52.538;13.820;2023-05-10T04:46:44;16.30;29.20
44843;DHT22;31884;52.538;13.820;2023-05-10T04:49:10;16.50;26.30
44843;DHT22;31884;52.538;13.820;2023-05-10T04:51:35;16.70;26.60
44843;DHT22;31884;52.538;13.820;2023-05-10T04:54:01;17.20;25.30
44843;DHT22;31884;52.538;13.820;2023-05-10T04:56:26;17.40;23.80
44843;DHT22;31884;52.538;13.820;2023-05-10T04:58:52;17.90;21.60
44843;DHT22;31884;52.538;13.820;2023-05-10T05:01:17;18.50;20.70
44843;DHT22;31884;52.538;13.820;2023-05-10T05:03:43;18.50;20.10
44843;DHT22;31884;52.538;13.820;2023-05-10T05:06:08;18.40;18.80
44843;DHT22;31884;52.538;13.820;2023-05-10T05:08:34;18.90;20.60
44843;DHT22;31884;52.538;13.820;2023-05-10T05:10:59;19.30;17.30
44843;DHT22;31884;52.538;13.820;2023-05-10T05:13:24;19.10;18.10
44843;DHT22;31884;52.538;13.820;2023-05-10T05:15:50;19.70;18.60
44843;DHT22;31884;52.538;13.820;2023-05-10T05:18:16;20.30;15.50
44843;DHT22;31884;52.538;13.820;2023-05-10T05:20:41;20.20;13.60
44843;DHT22;31884;52.538;13.820;2023-05-10T05:23:07;19.80;15.70
44843;DHT22;31884;52.538;13.820;2023-05-10T05:25:32;20.20;14.10
44843;DHT22;31884;52.538;13.820;2023-05-10T05:27:57;20.40;13.10
44843;DHT22;31884;52.538;13.820;2023-05-10T05:30:23;20.90;13.00
44843;DHT22;31884;52.538;13.820;2023-05-10T05:32:48;21.20;13.60
44843;DHT22;31884;52.538;13.820;2023-05-10T05:35:14;22.00;13.10
44843;DHT22;31884;52.538;13.820;2023-05-10T05:37:39;22.30;11.30
44843;DHT22;31884;52.538;13.820;2023-05-10T05:40:06;22.40;9.10
44843;DHT22;31884;52.538;13.820;2023-05-10T05:42:31;22.80;9.10
44843;DHT22;31884;52.538;13.820;2023-05-10T05:44:57;23.10;8.70
44843;DHT22;31884;52.538;13.820;2023-05-10T05:47:23;23.70;6.50
44843;DHT22;31884;52.538;13.820;2023-05-10T05:49:48;23.60;7.90
44843;DHT22;31884;52.538;13.820;2023-05-10T05:52:14;22.90;7.30
44843;DHT22;31884;52.538;13.820;2023-05-10T05:54:39;23.30;7.00
44843;DHT22;31884;52.538;13.820;2023-05-10T05:57:05;23.60;7.30
44843;DHT22;31884;52.538;13.820;2023-05-10T05:59:30;23.90;7.00
44843;DHT22;31884;52.538;13.820;2023-05-10T06:01:56;24.80;6.50
44843;DHT22;31884;52.538;13.820;2023-05-10T06:04:22;25.50;4.40
44843;DHT22;31884;52.538;13.820;2023-05-10T06:06:47;25.40;3.00
44843;DHT22;31884;52.538;13.820;2023-05-10T06:09:13;24.30;5.20
44843;DHT22;31884;52.538;13.820;2023-05-10T06:11:38;23.90;4.20
44843;DHT22;31884;52.538;13.820;2023-05-10T06:14:04;24.50;3.90
44843;DHT22;31884;52.538;13.820;2023-05-10T06:16:30;24.60;4.10
44843;DHT22;31884;52.538;13.820;2023-05-10T06:18:56;25.30;4.20
44843;DHT22;31884;52.538;13.820;2023-05-10T06:21:22;25.60;3.60
44843;DHT22;31884;52.538;13.820;2023-05-10T06:23:47;26.10;3.10
44843;DHT22;31884;52.538;13.820;2023-05-10T06:26:13;27.00;2.80
44843;DHT22;31884;52.538;13.820;2023-05-10T06:28:39;26.70;1.70
44843;DHT22;31884;52.538;13.820;2023-05-10T06:31:05;26.20;1.20
44843;DHT22;31884;52.538;13.820;2023-05-10T06:33:31;26.80;1.10
44843;DHT22;31884;52.538;13.820;2023-05-10T06:35:57;27.30;1.50
44843;DHT22;31884;52.538;13.820;2023-05-10T06:38:23;28.00;1.00
44843;DHT22;31884;52.538;13.820;2023-05-10T06:40:49;27.70;1.00
44843;DHT22;31884;52.538;13.820;2023-05-10T06:43:14;27.60;1.00
44843;DHT22;31884;52.538;13.820;2023-05-10T06:45:40;26.50;1.00
44843;DHT22;31884;52.538;13.820;2023-05-10T06:48:06;26.00;1.00
44843;DHT22;31884;52.538;13.820;2023-05-10T06:50:32;26.50;1.00
44843;DHT22;31884;52.538;13.820;2023-05-10T06:52:58;26.40;1.00
44843;DHT22;31884;52.538;13.820;2023-05-10T06:55:24;26.00;1.60
44843;DHT22;31884;52.538;13.820;2023-05-10T06:57:49;27.00;1.00
44843;DHT22;31884;52.538;13.820;2023-05-10T07:00:16;26.90;1.00
44843;DHT22;31884;52.538;13.820;2023-05-10T07:02:42;26.80;1.00
44843;DHT22;31884;52.538;13.820;2023-05-10T07:05:07;26.90;1.00
44843;DHT22;31884;52.538;13.820;2023-05-10T07:07:33;27.30;1.00
44843;DHT22;31884;52.538;13.820;2023-05-10T07:09:59;27.10;1.00
44843;DHT22;31884;52.538;13.820;2023-05-10T07:12:24;27.30;1.00
44843;DHT22;31884;52.538;13.820;2023-05-10T07:14:50;26.40;1.00
44843;DHT22;31884;52.538;13.820;2023-05-10T07:17:15;26.80;1.00
44843;DHT22;31884;52.538;13.820;2023-05-10T07:19:41;26.90;1.00
44843;DHT22;31884;52.538;13.820;2023-05-10T07:22:06;26.80;1.00
44843;DHT22;31884;52.538;13.820;2023-05-10T07:24:33;26.70;1.00
44843;DHT22;31884;52.538;13.820;2023-05-10T07:26:58;26.00;1.00
44843;DHT22;31884;52.538;13.820;2023-05-10T07:29:24;26.70;1.00
44843;DHT22;31884;52.538;13.820;2023-05-10T07:31:49;26.70;1.00
44843;DHT22;31884;52.538;13.820;2023-05-10T07:34:15;26.50;1.00
44843;DHT22;31884;52.538;13.820;2023-05-10T07:36:40;26.80;1.00
44843;DHT22;31884;52.538;13.820;2023-05-10T07:39:06;27.40;1.00
44843;DHT22;31884;52.538;13.820;2023-05-10T07:41:32;27.80;1.00
44843;DHT22;31884;52.538;13.820;2023-05-10T07:43:58;27.80;1.00
44843;DHT22;31884;52.538;13.820;2023-05-10T07:46:23;27.90;1.00
44843;DHT22;31884;52.538;13.820;2023-05-10T07:48:49;27.60;1.00
44843;DHT22;31884;52.538;13.820;2023-05-10T07:51:14;27.70;1.00
44843;DHT22;31884;52.538;13.820;2023-05-10T07:53:40;26.70;1.00
44843;DHT22;31884;52.538;13.820;2023-05-10T07:56:24;27.00;1.00
44843;DHT22;31884;52.538;13.820;2023-05-10T07:58:51;26.70;1.00
44843;DHT22;31884;52.538;13.820;2023-05-10T08:01:16;26.30;1.00
44843;DHT22;31884;52.538;13.820;2023-05-10T08:03:42;26.10;1.00
44843;DHT22;31884;52.538;13.820;2023-05-10T08:06:07;26.50;1.00
44843;DHT22;31884;52.538;13.820;2023-05-10T08:08:33;26.50;1.00
44843;DHT22;31884;52.538;13.820;2023-05-10T08:10:58;26.00;1.00
44843;DHT22;31884;52.538;13.820;2023-05-10T08:13:24;25.80;1.00
44843;DHT22;31884;52.538;13.820;2023-05-10T08:15:49;26.20;1.00
44843;DHT22;31884;52.538;13.820;2023-05-10T08:18:18;26.00;1.00
44843;DHT22;31884;52.538;13.820;2023-05-10T08:20:43;25.00;1.00
44843;DHT22;31884;52.538;13.820;2023-05-10T08:23:09;25.20;1.00
44843;DHT22;31884;52.538;13.820;2023-05-10T08:25:34;25.60;1.00
44843;DHT22;31884;52.538;13.820;2023-05-10T08:28:00;25.30;1.00
44843;DHT22;31884;52.538;13.820;2023-05-10T08:30:25;23.90;2.50
44843;DHT22;31884;52.538;13.820;2023-05-10T08:32:51;23.80;3.00
44843;DHT22;31884;52.538;13.820;2023-05-10T08:35:16;23.20;3.60
44843;DHT22;31884;52.538;13.820;2023-05-10T08:37:42;23.70;3.60
44843;DHT22;31884;52.538;13.820;2023-05-10T08:40:08;24.20;3.10
44843;DHT22;31884;52.538;13.820;2023-05-10T08:42:39;23.70;3.50
44843;DHT22;31884;52.538;13.820;2023-05-10T08:45:07;23.80;3.40
44843;DHT22;31884;52.538;13.820;2023-05-10T08:47:33;23.50;3.50
44843;DHT22;31884;52.538;13.820;2023-05-10T08:50:00;22.90;4.40
44843;DHT22;31884;52.538;13.820;2023-05-10T08:52:29;22.90;4.60
44843;DHT22;31884;52.538;13.820;2023-05-10T08:54:55;22.80;4.70
44843;DHT22;31884;52.538;13.820;2023-05-10T08:57:20;22.80;5.00
44843;DHT22;31884;52.538;13.820;2023-05-10T08:59:46;22.40;5.30
44843;DHT22;31884;52.538;13.820;2023-05-10T09:02:13;22.10;6.20
44843;DHT22;31884;52.538;13.820;2023-05-10T09:04:39;22.40;6.30
44843;DHT22;31884;52.538;13.820;2023-05-10T09:07:06;22.90;5.30
44843;DHT22;31884;52.538;13.820;2023-05-10T09:09:31;23.20;4.20
44843;DHT22;31884;52.538;13.820;2023-05-10T09:11:57;23.50;4.10
44843;DHT22;31884;52.538;13.820;2023-05-10T09:14:24;23.50;4.40
44843;DHT22;31884;52.538;13.820;2023-05-10T09:16:50;23.20;4.60
44843;DHT22;31884;52.538;13.820;2023-05-10T09:19:16;22.70;5.30
44843;DHT22;31884;52.538;13.820;2023-05-10T09:21:41;22.90;5.10
44843;DHT22;31884;52.538;13.820;2023-05-10T09:24:07;23.00;5.10
44843;DHT22;31884;52.538;13.820;2023-05-10T09:26:34;23.00;5.20
44843;DHT22;31884;52.538;13.820;2023-05-10T09:29:01;22.70;5.50
44843;DHT22;31884;52.538;13.820;2023-05-10T09:31:51;22.40;5.70
44843;DHT22;31884;52.538;13.820;2023-05-10T09:34:19;22.80;5.40
44843;DHT22;31884;52.538;13.820;2023-05-10T09:36:59;22.30;6.10
44843;DHT22;31884;52.538;13.820;2023-05-10T09:39:35;22.20;5.90
44843;DHT22;31884;52.538;13.820;2023-05-10T09:42:03;21.90;6.70
44843;DHT22;31884;52.538;13.820;2023-05-10T09:44:30;21.70;7.40
44843;DHT22;31884;52.538;13.820;2023-05-10T09:46:55;21.80;6.70
44843;DHT22;31884;52.538;13.820;2023-05-10T09:49:22;21.90;6.70
44843;DHT22;31884;52.538;13.820;2023-05-10T09:52:04;22.20;6.50
44843;DHT22;31884;52.538;13.820;2023-05-10T09:54:30;22.20;6.90
44843;DHT22;31884;52.538;13.820;2023-05-10T09:56:56;22.10;6.30
44843;DHT22;31884;52.538;13.820;2023-05-10T09:59:21;22.20;6.50
44843;DHT22;31884;52.538;13.820;2023-05-10T10:01:50;21.80;6.50
44843;DHT22;31884;52.538;13.820;2023-05-10T10:04:17;21.80;6.80
44843;DHT22;31884;52.538;13.820;2023-05-10T10:06:42;21.70;6.90
44843;DHT22;31884;52.538;13.820;2023-05-10T10:09:09;21.40;7.50
44843;DHT22;31884;52.538;13.820;2023-05-10T10:11:36;21.60;7.50
44843;DHT22;31884;52.538;13.820;2023-05-10T10:14:01;21.70;8.00
44843;DHT22;31884;52.538;13.820;2023-05-10T10:16:29;21.60;7.50
44843;DHT22;31884;52.538;13.820;2023-05-10T10:18:55;21.60;7.70
44843;DHT22;31884;52.538;13.820;2023-05-10T10:21:22;21.50;7.80
44843;DHT22;31884;52.538;13.820;2023-05-10T10:23:47;21.20;8.30
44843;DHT22;31884;52.538;13.820;2023-05-10T10:26:14;21.20;8.20
44843;DHT22;31884;52.538;13.820;2023-05-10T10:28:51;21.10;8.50
44843;DHT22;31884;52.538;13.820;2023-05-10T10:31:45;21.00;8.20
44843;DHT22;31884;52.538;13.820;2023-05-10T10:34:28;20.90;8.80
44843;DHT22;31884;52.538;13.820;2023-05-10T10:36:55;20.80;9.00
44843;DHT22;31884;52.538;13.820;2023-05-10T10:39:22;20.90;9.10
44843;DHT22;31884;52.538;13.820;2023-05-10T10:41:54;20.70;8.90
44843;DHT22;31884;52.538;13.820;2023-05-10T10:44:23;20.50;9.10
44843;DHT22;31884;52.538;13.820;2023-05-10T10:47:03;20.60;9.20
44843;DHT22;31884;52.538;13.820;2023-05-10T10:52:27;20.70;9.50
44843;DHT22;31884;52.538;13.820;2023-05-10T10:55:02;20.50;9.70
44843;DHT22;31884;52.538;13.820;2023-05-10T10:57:53;20.60;9.30
44843;DHT22;31884;52.538;13.820;2023-05-10T11:03:05;20.60;9.90
44843;DHT22;31884;52.538;13.820;2023-05-10T11:05:43;20.50;10.10
44843;DHT22;31884;52.538;13.820;2023-05-10T11:11:06;20.80;10.30
44843;DHT22;31884;52.538;13.820;2023-05-10T11:13:40;20.90;9.80
44843;DHT22;31884;52.538;13.820;2023-05-10T11:21:18;21.10;9.90
44843;DHT22;31884;52.538;13.820;2023-05-10T11:26:12;21.10;10.10
44843;DHT22;31884;52.538;13.820;2023-05-10T11:28:48;21.20;9.20
44843;DHT22;31884;52.538;13.820;2023-05-10T11:31:17;21.10;10.20
44843;DHT22;31884;52.538;13.820;2023-05-10T11:33:47;21.20;9.20
44843;DHT22;31884;52.538;13.820;2023-05-10T11:38:42;21.20;8.80
44843;DHT22;31884;52.538;13.820;2023-05-10T11:41:09;21.20;8.80
44843;DHT22;31884;52.538;13.820;2023-05-10T11:43:35;21.20;8.90
44843;DHT22;31884;52.538;13.820;2023-05-10T11:46:07;21.20;9.70
44843;DHT22;31884;52.538;13.820;2023-05-10T11:48:33;21.20;8.90
44843;DHT22;31884;52.538;13.820;2023-05-10T11:50:58;21.30;9.10
44843;DHT22;31884;52.538;13.820;2023-05-10T11:53:28;21.30;8.90
44843;DHT22;31884;52.538;13.820;2023-05-10T11:55:54;21.30;9.40
44843;DHT22;31884;52.538;13.820;2023-05-10T11:58:20;21.40;9.00
44843;DHT22;31884;52.538;13.820;2023-05-10T12:00:46;21.40;9.10
44843;DHT22;31884;52.538;13.820;2023-05-10T12:03:12;21.50;8.60
44843;DHT22;31884;52.538;13.820;2023-05-10T12:05:38;21.60;8.80
44843;DHT22;31884;52.538;13.820;2023-05-10T12:08:23;21.60;7.90
44843;DHT22;31884;52.538;13.820;2023-05-10T12:10:49;21.60;8.20
44843;DHT22;31884;52.538;13.820;2023-05-10T12:13:15;21.40;8.10
44843;DHT22;31884;52.538;13.820;2023-05-10T12:15:42;21.40;8.40
44843;DHT22;31884;52.538;13.820;2023-05-10T12:18:14;21.50;8.80
44843;DHT22;31884;52.538;13.820;2023-05-10T12:20:40;21.60;8.10
44843;DHT22;31884;52.538;13.820;2023-05-10T12:23:09;21.70;7.00
44843;DHT22;31884;52.538;13.820;2023-05-10T12:25:36;21.70;6.50
44843;DHT22;31884;52.538;13.820;2023-05-10T12:28:07;21.80;7.10
44843;DHT22;31884;52.538;13.820;2023-05-10T12:30:34;21.80;7.00
44843;DHT22;31884;52.538;13.820;2023-05-10T12:35:33;21.80;7.10
44843;DHT22;31884;52.538;13.820;2023-05-10T12:37:59;21.90;7.40
44843;DHT22;31884;52.538;13.820;2023-05-10T12:40:25;21.90;7.40
44843;DHT22;31884;52.538;13.820;2023-05-10T12:42:51;21.80;7.00
44843;DHT22;31884;52.538;13.820;2023-05-10T12:45:17;21.90;7.40
44843;DHT22;31884;52.538;13.820;2023-05-10T12:47:43;21.90;7.20
44843;DHT22;31884;52.538;13.820;2023-05-10T12:50:09;22.00;6.50
44843;DHT22;31884;52.538;13.820;2023-05-10T12:52:34;22.00;6.30
44843;DHT22;31884;52.538;13.820;2023-05-10T12:55:00;22.00;5.40
44843;DHT22;31884;52.538;13.820;2023-05-10T12:57:27;22.00;5.20
44843;DHT22;31884;52.538;13.820;2023-05-10T12:59:53;22.00;5.80
44843;DHT22;31884;52.538;13.820;2023-05-10T13:02:18;22.00;6.30
44843;DHT22;31884;52.538;13.820;2023-05-10T13:04:45;21.90;6.40
44843;DHT22;31884;52.538;13.820;2023-05-10T13:07:11;21.90;6.70
44843;DHT22;31884;52.538;13.820;2023-05-10T13:09:37;21.90;7.00
44843;DHT22;31884;52.538;13.820;2023-05-10T13:12:02;21.70;6.70
44843;DHT22;31884;52.538;13.820;2023-05-10T13:14:29;21.70;6.90
44843;DHT22;31884;52.538;13.820;2023-05-10T13:16:55;21.70;7.10
44843;DHT22;31884;52.538;13.820;2023-05-10T13:19:20;21.80;7.60
44843;DHT22;31884;52.538;13.820;2023-05-10T13:21:46;21.90;7.60
44843;DHT22;31884;52.538;13.820;2023-05-10T13:24:11;22.00;7.00
44843;DHT22;31884;52.538;13.820;2023-05-10T13:26:39;22.00;6.70
44843;DHT22;31884;52.538;13.820;2023-05-10T13:29:05;22.00;6.10
44843;DHT22;31884;52.538;13.820;2023-05-10T13:31:31;21.90;5.40
44843;DHT22;31884;52.538;13.820;2023-05-10T13:33:56;21.90;6.20
44843;DHT22;31884;52.538;13.820;2023-05-10T13:36:22;21.90;6.70
44843;DHT22;31884;52.538;13.820;2023-05-10T13:38:48;21.90;7.50
44843;DHT22;31884;52.538;13.820;2023-05-10T13:41:13;21.90;7.70
44843;DHT22;31884;52.538;13.820;2023-05-10T13:43:39;22.00;8.10
44843;DHT22;31884;52.538;13.820;2023-05-10T13:46:05;22.00;7.30
44843;DHT22;31884;52.538;13.820;2023-05-10T13:48:30;22.00;7.20
44843;DHT22;31884;52.538;13.820;2023-05-10T13:50:56;22.10;7.40
44843;DHT22;31884;52.538;13.820;2023-05-10T13:53:22;22.20;7.10
44843;DHT22;31884;52.538;13.820;2023-05-10T13:55:47;22.30;7.00
44843;DHT22;31884;52.538;13.820;2023-05-10T13:58:13;22.40;7.10
44843;DHT22;31884;52.538;13.820;2023-05-10T14:00:38;22.40;7.40
44843;DHT22;31884;52.538;13.820;2023-05-10T14:03:04;22.40;7.10
44843;DHT22;31884;52.538;13.820;2023-05-10T14:05:30;22.40;7.20
44843;DHT22;31884;52.538;13.820;2023-05-10T14:07:56;22.30;7.10
44843;DHT22;31884;52.538;13.820;2023-05-10T14:10:21;22.30;6.60
44843;DHT22;31884;52.538;13.820;2023-05-10T14:12:47;22.40;6.80
44843;DHT22;31884;52.538;13.820;2023-05-10T14:15:12;22.40;7.00
44843;DHT22;31884;52.538;13.820;2023-05-10T14:17:38;22.50;6.80
44843;DHT22;31884;52.538;13.820;2023-05-10T14:20:03;22.40;5.70
44843;DHT22;31884;52.538;13.820;2023-05-10T14:22:29;22.40;6.20
44843;DHT22;31884;52.538;13.820;2023-05-10T14:24:55;22.40;6.00
44843;DHT22;31884;52.538;13.820;2023-05-10T14:27:20;22.40;6.30
44843;DHT22;31884;52.538;13.820;2023-05-10T14:29:47;22.30;6.20
44843;DHT22;31884;52.538;13.820;2023-05-10T14:32:13;22.30;6.40
44843;DHT22;31884;52.538;13.820;2023-05-10T14:34:38;22.50;6.10
44843;DHT22;31884;52.538;13.820;2023-05-10T14:37:04;22.50;6.40
44843;DHT22;31884;52.538;13.820;2023-05-10T14:39:29;22.50;6.60
44843;DHT22;31884;52.538;13.820;2023-05-10T14:41:55;22.50;6.90
44843;DHT22;31884;52.538;13.820;2023-05-10T14:44:21;22.60;7.00
44843;DHT22;31884;52.538;13.820;2023-05-10T14:46:47;22.60;6.50
44843;DHT22;31884;52.538;13.820;2023-05-10T14:49:13;22.60;6.50
44843;DHT22;31884;52.538;13.820;2023-05-10T14:51:39;22.60;6.60
44843;DHT22;31884;52.538;13.820;2023-05-10T14:54:04;22.70;6.70
44843;DHT22;31884;52.538;13.820;2023-05-10T14:56:30;22.80;6.50
44843;DHT22;31884;52.538;13.820;2023-05-10T14:58:56;22.80;6.40
44843;DHT22;31884;52.538;13.820;2023-05-10T15:01:21;22.80;6.50
44843;DHT22;31884;52.538;13.820;2023-05-10T15:03:47;22.70;6.60
44843;DHT22;31884;52.538;13.820;2023-05-10T15:06:14;22.60;7.20
44843;DHT22;31884;52.538;13.820;2023-05-10T15:08:43;22.50;6.30
44843;DHT22;31884;52.538;13.820;2023-05-10T15:11:08;22.40;6.70
44843;DHT22;31884;52.538;13.820;2023-05-10T15:13:34;22.40;6.60
44843;DHT22;31884;52.538;13.820;2023-05-10T15:15:59;22.40;6.40
44843;DHT22;31884;52.538;13.820;2023-05-10T15:18:25;22.50;6.20
44843;DHT22;31884;52.538;13.820;2023-05-10T15:20:50;22.40;6.40
44843;DHT22;31884;52.538;13.820;2023-05-10T15:23:16;22.40;6.50
44843;DHT22;31884;52.538;13.820;2023-05-10T15:25:42;22.30;6.80
44843;DHT22;31884;52.538;13.820;2023-05-10T15:28:07;22.20;6.90
44843;DHT22;31884;52.538;13.820;2023-05-10T15:30:33;22.10;6.90
44843;DHT22;31884;52.538;13.820;2023-05-10T15:32:58;22.10;7.00
44843;DHT22;31884;52.538;13.820;2023-05-10T15:35:25;22.00;7.20
44843;DHT22;31884;52.538;13.820;2023-05-10T15:37:51;22.10;6.80
44843;DHT22;31884;52.538;13.820;2023-05-10T15:40:16;22.10;6.80
44843;DHT22;31884;52.538;13.820;2023-05-10T15:42:42;22.10;6.80
44843;DHT22;31884;52.538;13.820;2023-05-10T15:45:08;22.10;7.00
44843;DHT22;31884;52.538;13.820;2023-05-10T15:47:34;22.20;6.90
44843;DHT22;31884;52.538;13.820;2023-05-10T15:49:59;22.30;7.10
44843;DHT22;31884;52.538;13.820;2023-05-10T15:52:25;22.40;7.70
44843;DHT22;31884;52.538;13.820;2023-05-10T15:54:51;22.40;7.80
44843;DHT22;31884;52.538;13.820;2023-05-10T15:57:17;22.30;7.70
44843;DHT22;31884;52.538;13.820;2023-05-10T15:59:42;22.30;7.30
44843;DHT22;31884;52.538;13.820;2023-05-10T16:02:08;22.20;7.10